createdAt,value
2018-11-23T00:00:10.141Z,30.67
2018-11-23T00:02:38.317Z,29.97
2018-11-23T00:05:06.561Z,32.10
2018-11-23T00:07:34.902Z,29.87
2018-11-23T00:10:03.181Z,32.27
2018-11-23T00:12:31.441Z,29.10
2018-11-23T00:14:59.656Z,31.60
2018-11-23T00:17:27.885Z,33.63
2018-11-23T00:19:56.079Z,31.67
2018-11-23T00:22:24.358Z,30.53
2018-11-23T00:24:52.573Z,31.03
2018-11-23T00:27:20.892Z,29.93
2018-11-23T00:29:49.304Z,34.77
2018-11-23T00:32:17.552Z,32.43
2018-11-23T00:34:45.867Z,30.77
2018-11-23T00:37:14.104Z,31.13
2018-11-23T00:39:42.340Z,29.57
2018-11-23T00:42:10.585Z,29.93
2018-11-23T00:44:38.795Z,28.53
2018-11-23T00:47:07.077Z,29.70
2018-11-23T00:49:35.311Z,31.43
2018-11-23T00:52:03.559Z,29.03
2018-11-23T00:54:31.785Z,28.90
2018-11-23T00:56:59.998Z,28.30
2018-11-23T00:59:28.229Z,28.47
2018-11-23T01:02:03.186Z,28.43
2018-11-23T01:04:31.805Z,27.63
2018-11-23T01:07:00.054Z,25.43
2018-11-23T01:09:28.256Z,25.97
2018-11-23T01:11:56.453Z,26.23
2018-11-23T01:14:24.737Z,27.87
2018-11-23T01:16:52.984Z,29.17
2018-11-23T01:19:21.204Z,28.30
2018-11-23T01:21:49.433Z,26.20
2018-11-23T01:24:17.683Z,27.30
2018-11-23T01:26:46.002Z,27.53
2018-11-23T01:29:14.242Z,31.33
2018-11-23T01:31:42.554Z,30.30
2018-11-23T01:34:10.759Z,32.60
2018-11-23T01:36:38.966Z,27.97
2018-11-23T01:39:08.623Z,30.77
2018-11-23T01:41:36.873Z,32.30
2018-11-23T01:44:05.107Z,34.43
2018-11-23T01:46:33.349Z,32.73
2018-11-23T01:49:01.610Z,34.07
2018-11-23T01:51:29.863Z,33.57
2018-11-23T01:53:58.097Z,34.60
2018-11-23T01:56:26.412Z,33.67
2018-11-23T01:58:54.613Z,36.50
2018-11-23T02:01:22.871Z,33.20
2018-11-23T02:03:51.081Z,28.27
2018-11-23T02:06:19.402Z,31.17
2018-11-23T02:08:47.739Z,28.93
2018-11-23T02:11:15.986Z,32.43
2018-11-23T02:13:44.854Z,32.47
2018-11-23T02:16:13.065Z,26.77
2018-11-23T02:18:41.368Z,33.23
2018-11-23T02:21:09.583Z,31.60
2018-11-23T02:23:37.819Z,31.37
2018-11-23T02:26:06.529Z,29.90
2018-11-23T02:28:34.750Z,29.50
2018-11-23T02:31:08.435Z,30.93
2018-11-23T02:33:38.016Z,29.50
2018-11-23T02:36:06.870Z,29.20
2018-11-23T02:38:35.105Z,28.90
2018-11-23T02:41:03.310Z,28.47
2018-11-23T02:43:31.552Z,24.53
2018-11-23T02:45:59.742Z,31.20
2018-11-23T02:48:28.120Z,31.53
2018-11-23T02:50:56.409Z,34.27
2018-11-23T02:53:24.606Z,34.27
2018-11-23T02:55:52.863Z,27.97
2018-11-23T02:58:21.130Z,30.53
2018-11-23T03:00:49.382Z,27.30
2018-11-23T03:03:17.582Z,29.33
2018-11-23T03:05:45.803Z,25.63
2018-11-23T03:08:14.301Z,26.83
2018-11-23T03:10:42.533Z,27.17
2018-11-23T03:13:10.796Z,28.87
2018-11-23T03:15:39.025Z,29.50
2018-11-23T03:18:07.308Z,29.00
2018-11-23T03:20:35.511Z,26.43
2018-11-23T03:23:03.791Z,25.33
2018-11-23T03:25:32.024Z,27.60
2018-11-23T03:28:00.277Z,27.07
2018-11-23T03:30:28.535Z,25.83
2018-11-23T03:32:56.860Z,26.77
2018-11-23T03:35:25.089Z,24.03
2018-11-23T03:37:53.318Z,26.53
2018-11-23T03:40:21.562Z,24.67
2018-11-23T03:42:49.871Z,24.37
2018-11-23T03:45:18.607Z,25.77
2018-11-23T03:47:46.962Z,27.03
2018-11-23T03:50:15.970Z,26.30
2018-11-23T03:52:44.585Z,26.97
2018-11-23T03:55:12.831Z,28.60
2018-11-23T03:57:41.083Z,30.00
2018-11-23T04:00:17.828Z,27.70
2018-11-23T04:02:45.852Z,26.10
2018-11-23T04:05:14.111Z,25.20
2018-11-23T04:07:42.377Z,28.60
2018-11-23T04:10:12.157Z,26.20
2018-11-23T04:12:40.385Z,25.63
2018-11-23T04:15:09.020Z,24.17
2018-11-23T04:17:37.304Z,22.23
2018-11-23T04:20:06.819Z,23.33
2018-11-23T04:22:35.103Z,23.50
2018-11-23T04:25:03.395Z,26.03
2018-11-23T04:27:31.658Z,26.47
2018-11-23T04:29:59.914Z,26.30
2018-11-23T04:32:28.167Z,25.07
2018-11-23T04:34:56.398Z,25.10
2018-11-23T04:37:24.618Z,27.07
2018-11-23T04:39:52.916Z,28.87
2018-11-23T04:42:21.147Z,28.83
2018-11-23T04:44:49.405Z,27.37
2018-11-23T04:47:17.627Z,23.40
2018-11-23T04:49:46.143Z,24.80
2018-11-23T04:52:14.342Z,23.80
2018-11-23T04:54:42.554Z,23.83
2018-11-23T04:57:10.789Z,22.10
2018-11-23T04:59:39.083Z,24.47
2018-11-23T05:02:07.323Z,26.87
2018-11-23T05:04:35.548Z,29.10
2018-11-23T05:07:03.809Z,26.60
2018-11-23T05:09:32.083Z,28.77
2018-11-23T05:12:00.292Z,24.37
2018-11-23T05:14:28.495Z,29.00
2018-11-23T05:16:56.733Z,27.67
2018-11-23T05:19:24.957Z,27.77
2018-11-23T05:21:53.186Z,25.87
2018-11-23T05:24:21.446Z,26.20
2018-11-23T05:26:49.667Z,29.93
2018-11-23T05:29:17.868Z,27.40
2018-11-23T05:31:46.434Z,31.73
2018-11-23T05:34:14.638Z,30.63
2018-11-23T05:36:43.009Z,29.70
2018-11-23T05:39:11.242Z,27.03
2018-11-23T05:41:39.465Z,28.33
2018-11-23T05:44:07.738Z,38.47
2018-11-23T05:46:35.978Z,42.00
2018-11-23T05:49:04.269Z,50.57
2018-11-23T05:51:32.761Z,60.30
2018-11-23T05:54:00.991Z,58.63
2018-11-23T05:56:29.254Z,57.67
2018-11-23T05:58:57.463Z,47.33
2018-11-23T06:01:25.690Z,35.83
2018-11-23T06:03:53.987Z,38.13
2018-11-23T06:06:22.268Z,44.70
2018-11-23T06:08:50.694Z,39.77
2018-11-23T06:11:18.898Z,37.97
2018-11-23T06:13:47.122Z,37.23
2018-11-23T06:18:51.478Z,40.27
2018-11-23T06:21:19.728Z,35.57
2018-11-23T06:23:47.914Z,35.30
2018-11-23T06:26:21.186Z,39.33
2018-11-23T06:28:49.446Z,38.07
2018-11-23T06:31:17.694Z,33.80
2018-11-23T06:33:46.947Z,34.27
2018-11-23T06:36:15.253Z,36.80
2018-11-23T06:38:43.499Z,33.13
2018-11-23T06:41:11.924Z,35.07
2018-11-23T06:43:40.132Z,34.60
2018-11-23T06:46:09.599Z,31.37
2018-11-23T06:48:37.870Z,34.13
2018-11-23T06:51:06.280Z,30.97
2018-11-23T06:53:34.534Z,31.80
2018-11-23T06:56:03.273Z,31.17
2018-11-23T06:58:31.502Z,30.10
2018-11-23T07:00:59.714Z,32.20
2018-11-23T07:03:34.611Z,34.73
2018-11-23T07:06:02.811Z,32.00
2018-11-23T07:08:31.034Z,30.23
2018-11-23T07:11:00.475Z,32.07
2018-11-23T07:13:29.534Z,30.67
2018-11-23T07:15:57.786Z,26.63
2018-11-23T07:18:26.202Z,32.67
2018-11-23T07:20:54.427Z,29.83
2018-11-23T07:23:22.711Z,33.33
2018-11-23T07:25:51.027Z,36.57
2018-11-23T07:28:19.209Z,37.57
2018-11-23T07:30:47.429Z,28.90
2018-11-23T07:33:15.708Z,33.73
2018-11-23T07:35:43.942Z,33.93
2018-11-23T07:38:12.157Z,33.10
2018-11-23T07:40:52.876Z,34.23
2018-11-23T07:43:21.131Z,35.00
2018-11-23T07:45:49.447Z,32.23
2018-11-23T07:48:17.705Z,34.40
2018-11-23T07:50:45.929Z,37.90
2018-11-23T07:53:14.194Z,34.07
2018-11-23T07:55:42.421Z,31.47
2018-11-23T07:58:10.962Z,34.67
2018-11-23T08:00:39.230Z,34.07
2018-11-23T08:03:07.455Z,33.00
2018-11-23T08:05:35.683Z,34.50
2018-11-23T08:08:03.991Z,32.80
2018-11-23T08:10:31.434Z,31.00
2018-11-23T08:12:59.692Z,30.47
2018-11-23T08:15:28.329Z,34.40
2018-11-23T08:17:56.601Z,34.13
2018-11-23T08:20:25.505Z,37.17
2018-11-23T08:22:53.874Z,32.50
2018-11-23T08:25:23.330Z,31.57
2018-11-23T08:27:53.001Z,32.30
2018-11-23T08:30:25.677Z,35.57
2018-11-23T08:32:54.194Z,34.30
2018-11-23T08:35:22.414Z,36.73
2018-11-23T08:37:50.644Z,34.13
2018-11-23T08:40:20.958Z,30.13
2018-11-23T08:42:49.977Z,35.20
2018-11-23T08:45:19.777Z,34.83
2018-11-23T08:47:47.968Z,29.90
2018-11-23T08:50:19.346Z,36.00
2018-11-23T08:52:47.546Z,33.67
2018-11-23T08:55:16.591Z,34.80
2018-11-23T08:57:44.806Z,32.30
2018-11-23T09:00:16.414Z,30.57
2018-11-23T09:02:45.856Z,32.57
2018-11-23T09:05:14.582Z,33.70
2018-11-23T09:07:43.830Z,39.80
2018-11-23T09:10:14.517Z,35.20
2018-11-23T09:12:43.578Z,40.63
2018-11-23T09:15:13.186Z,39.13
2018-11-23T09:17:41.916Z,34.03
2018-11-23T09:20:11.003Z,35.27
2018-11-23T09:22:39.225Z,34.70
2018-11-23T09:25:09.502Z,30.30
2018-11-23T09:27:37.734Z,34.70
2018-11-23T09:30:13.046Z,29.13
2018-11-23T09:32:41.470Z,30.30
2018-11-23T09:35:09.783Z,28.67
2018-11-23T09:37:38.706Z,27.10
2018-11-23T09:40:09.195Z,23.80
2018-11-23T09:42:37.490Z,24.07
2018-11-23T09:45:07.951Z,24.23
2018-11-23T09:47:36.656Z,24.50
2018-11-23T09:50:07.202Z,24.60
2018-11-23T09:52:35.437Z,24.37
2018-11-23T09:55:03.701Z,25.27
2018-11-23T09:57:31.917Z,24.93
2018-11-23T10:00:00.613Z,26.10
2018-11-23T10:02:28.793Z,22.23
2018-11-23T10:04:57.109Z,25.70
2018-11-23T10:07:25.481Z,24.67
2018-11-23T10:09:53.836Z,25.17
2018-11-23T10:12:22.070Z,27.43
2018-11-23T10:14:50.326Z,26.73
2018-11-23T10:17:18.554Z,24.30
2018-11-23T10:19:46.766Z,24.33
2018-11-23T10:22:15.065Z,24.60
2018-11-23T10:24:43.318Z,28.23
2018-11-23T10:27:11.523Z,23.87
2018-11-23T10:29:39.794Z,26.77
2018-11-23T10:32:08.053Z,31.07
2018-11-23T10:34:36.277Z,23.40
2018-11-23T10:37:04.626Z,24.57
2018-11-23T10:39:32.877Z,27.47
2018-11-23T10:42:01.073Z,27.83
2018-11-23T10:44:29.322Z,26.70
2018-11-23T10:46:57.619Z,32.33
2018-11-23T10:49:25.842Z,25.40
2018-11-23T10:51:54.054Z,24.23
2018-11-23T10:54:22.317Z,31.87
2018-11-23T10:56:50.540Z,26.60
2018-11-23T10:59:21.030Z,26.50
2018-11-23T11:01:54.458Z,22.97
2018-11-23T11:04:28.130Z,24.87
2018-11-23T11:07:00.570Z,27.80
2018-11-23T11:09:29.112Z,27.10
2018-11-23T11:11:57.760Z,26.43
2018-11-23T11:14:25.954Z,22.83
2018-11-23T11:16:54.224Z,23.00
2018-11-23T11:19:22.465Z,26.23
2018-11-23T11:21:50.819Z,24.87
2018-11-23T11:24:19.059Z,24.27
2018-11-23T11:26:47.311Z,30.30
2018-11-23T11:29:15.514Z,25.33
2018-11-23T11:31:44.022Z,25.73
2018-11-23T11:34:12.307Z,24.87
2018-11-23T11:36:40.538Z,25.67
2018-11-23T11:39:10.295Z,23.03
2018-11-23T11:41:38.631Z,25.00
2018-11-23T11:44:06.959Z,27.23
2018-11-23T11:46:35.283Z,24.20
2018-11-23T11:49:03.605Z,25.57
2018-11-23T11:51:31.884Z,29.30
2018-11-23T11:56:39.355Z,25.57
2018-11-23T11:59:07.610Z,27.40
2018-11-23T12:01:35.894Z,24.63
2018-11-23T12:04:04.181Z,23.90
2018-11-23T12:06:32.429Z,25.43
2018-11-23T12:09:01.602Z,23.80
2018-11-23T12:11:29.788Z,58.43
2018-11-23T12:13:57.942Z,68.67
2018-11-23T12:16:26.098Z,47.03
2018-11-23T12:18:54.277Z,25.43
2018-11-23T12:21:22.466Z,22.93
2018-11-23T12:23:50.636Z,23.40
2018-11-23T12:26:18.852Z,22.60
2018-11-23T12:28:47.109Z,22.33
2018-11-23T12:31:15.301Z,22.80
2018-11-23T12:33:43.537Z,23.27
2018-11-23T12:36:11.789Z,25.13
2018-11-23T12:38:43.037Z,22.33
2018-11-23T12:41:08.288Z,25.50
2018-11-23T12:43:36.501Z,21.37
2018-11-23T12:46:04.808Z,24.60
2018-11-23T12:48:33.023Z,22.93
2018-11-23T12:51:01.236Z,24.00
2018-11-23T12:53:29.466Z,21.57
2018-11-23T12:55:57.702Z,26.00
2018-11-23T12:58:25.920Z,26.13
2018-11-23T13:00:54.113Z,22.20
2018-11-23T13:03:22.440Z,23.00
2018-11-23T13:05:50.743Z,23.77
2018-11-23T13:08:18.925Z,24.97
2018-11-23T13:10:47.169Z,20.77
2018-11-23T13:13:15.382Z,24.27
2018-11-23T13:15:43.606Z,24.90
2018-11-23T13:18:11.904Z,22.43
2018-11-23T13:20:40.094Z,22.43
2018-11-23T13:23:08.557Z,23.50
2018-11-23T13:25:36.754Z,25.63
2018-11-23T13:28:05.168Z,27.87
2018-11-23T13:30:34.668Z,25.47
2018-11-23T13:33:02.906Z,28.20
2018-11-23T13:35:31.105Z,24.40
2018-11-23T13:37:59.373Z,25.73
2018-11-23T13:40:28.497Z,25.27
2018-11-23T13:42:57.686Z,24.23
2018-11-23T13:45:27.202Z,25.10
2018-11-23T13:47:55.403Z,21.83
2018-11-23T13:50:24.165Z,28.00
2018-11-23T13:52:53.799Z,22.83
2018-11-23T13:55:21.997Z,24.73
2018-11-23T13:57:50.228Z,24.67
2018-11-23T14:00:20.866Z,24.30
2018-11-23T14:02:49.146Z,24.03
2018-11-23T14:05:18.726Z,22.23
2018-11-23T14:07:48.292Z,26.17
2018-11-23T14:10:17.902Z,24.80
2018-11-23T14:12:46.336Z,25.73
2018-11-23T14:15:23.244Z,25.47
2018-11-23T14:17:52.339Z,23.97
2018-11-23T14:20:21.362Z,28.20
2018-11-23T14:22:49.589Z,28.23
2018-11-23T14:25:19.874Z,25.53
2018-11-23T14:27:48.597Z,25.07
2018-11-23T14:30:19.153Z,28.20
2018-11-23T14:32:47.686Z,25.07
2018-11-23T14:35:18.201Z,23.70
2018-11-23T14:37:47.054Z,26.67
2018-11-23T14:40:15.702Z,27.63
2018-11-23T14:42:45.862Z,25.90
2018-11-23T14:45:18.552Z,25.80
2018-11-23T14:47:47.400Z,30.27
2018-11-23T14:50:17.805Z,30.50
2018-11-23T14:52:47.337Z,31.37
2018-11-23T14:55:15.848Z,30.03
2018-11-23T14:57:44.481Z,28.33
2018-11-23T15:00:19.866Z,29.00
2018-11-23T15:02:49.385Z,31.13
2018-11-23T15:05:18.181Z,34.33
2018-11-23T15:07:46.553Z,33.60
2018-11-23T15:10:15.882Z,29.43
2018-11-23T15:12:45.661Z,28.57
2018-11-23T15:15:15.200Z,27.47
2018-11-23T15:17:44.523Z,27.47
2018-11-23T15:20:15.542Z,30.27
2018-11-23T15:22:43.848Z,27.90
2018-11-23T15:25:12.086Z,29.57
2018-11-23T15:27:41.213Z,28.90
2018-11-23T15:30:17.753Z,29.63
2018-11-23T15:32:46.260Z,34.00
2018-11-23T15:35:14.786Z,29.07
2018-11-23T15:37:43.218Z,29.83
2018-11-23T15:40:15.838Z,31.20
2018-11-23T15:42:44.370Z,30.00
2018-11-23T15:45:14.551Z,29.00
2018-11-23T15:47:42.801Z,29.73
2018-11-23T15:50:15.301Z,31.30
2018-11-23T15:52:43.826Z,28.67
2018-11-23T15:55:14.646Z,30.93
2018-11-23T15:57:43.554Z,30.77
2018-11-23T16:00:14.030Z,33.13
2018-11-23T16:02:42.743Z,30.47
2018-11-23T16:05:11.743Z,30.17
2018-11-23T16:07:40.000Z,33.47
2018-11-23T16:10:19.444Z,34.10
2018-11-23T16:12:48.825Z,30.37
2018-11-23T16:15:17.744Z,33.33
2018-11-23T16:17:46.238Z,36.70
2018-11-23T16:20:15.699Z,34.07
2018-11-23T16:22:45.139Z,35.17
2018-11-23T16:25:13.490Z,29.87
2018-11-23T16:27:42.618Z,33.17
2018-11-23T16:30:14.701Z,41.13
2018-11-23T16:32:43.645Z,41.83
2018-11-23T16:35:12.171Z,39.77
2018-11-23T16:37:41.223Z,33.87
2018-11-23T16:40:11.290Z,35.40
2018-11-23T16:42:39.916Z,35.03
2018-11-23T16:45:11.290Z,35.77
2018-11-23T16:47:39.579Z,33.70
2018-11-23T16:50:08.360Z,40.13
2018-11-23T16:52:36.686Z,35.90
2018-11-23T16:55:06.146Z,37.87
2018-11-23T16:57:34.384Z,35.80
2018-11-23T17:00:02.847Z,37.50
2018-11-23T17:02:32.774Z,37.47
2018-11-23T17:05:00.994Z,37.67
2018-11-23T17:07:29.330Z,36.63
2018-11-23T17:09:57.913Z,37.20
2018-11-23T17:12:26.166Z,39.83
2018-11-23T17:14:54.391Z,39.33
2018-11-23T17:17:22.639Z,37.37
2018-11-23T17:19:50.898Z,39.70
2018-11-23T17:22:19.132Z,41.13
2018-11-23T17:24:47.421Z,34.13
2018-11-23T17:27:15.635Z,40.50
2018-11-23T17:29:43.860Z,35.20
2018-11-23T17:32:12.094Z,42.57
2018-11-23T17:34:40.391Z,37.73
2018-11-23T17:37:08.598Z,41.27
2018-11-23T17:39:36.819Z,43.23
2018-11-23T17:42:05.335Z,38.53
2018-11-23T17:44:33.584Z,34.93
2018-11-23T17:47:01.862Z,40.17
2018-11-23T17:49:30.114Z,40.03
2018-11-23T17:51:58.454Z,40.90
2018-11-23T17:54:26.711Z,39.30
2018-11-23T17:56:54.964Z,44.50
2018-11-23T17:59:23.926Z,46.27
2018-11-23T18:01:52.185Z,43.80
2018-11-23T18:04:20.398Z,46.33
2018-11-23T18:06:48.645Z,49.03
2018-11-23T18:09:16.950Z,41.53
2018-11-23T18:11:45.195Z,38.50
2018-11-23T18:14:13.471Z,38.43
2018-11-23T18:16:41.714Z,40.93
2018-11-23T18:19:09.972Z,39.00
2018-11-23T18:21:38.203Z,44.00
2018-11-23T18:24:06.454Z,43.80
2018-11-23T18:26:34.665Z,42.87
2018-11-23T18:29:02.926Z,42.73
2018-11-23T18:31:31.175Z,40.23
2018-11-23T18:33:59.434Z,42.80
2018-11-23T18:36:27.638Z,38.00
2018-11-23T18:38:55.846Z,42.37
2018-11-23T18:41:24.070Z,37.93
2018-11-23T18:43:52.262Z,39.37
2018-11-23T18:46:20.534Z,40.97
2018-11-23T18:48:48.788Z,47.97
2018-11-23T18:51:16.734Z,43.43
2018-11-23T18:53:45.002Z,44.53
2018-11-23T18:56:13.228Z,44.97
2018-11-23T18:58:41.435Z,47.77
2018-11-23T19:01:09.651Z,50.87
2018-11-23T19:03:37.891Z,45.67
2018-11-23T19:06:06.102Z,42.87
2018-11-23T19:08:34.321Z,42.33
2018-11-23T19:11:02.524Z,38.27
2018-11-23T19:13:30.941Z,42.10
2018-11-23T19:15:59.155Z,39.23
2018-11-23T19:18:27.398Z,40.57
2018-11-23T19:20:55.650Z,38.07
2018-11-23T19:23:23.863Z,39.57
2018-11-23T19:25:52.109Z,43.60
2018-11-23T19:28:20.377Z,39.23
2018-11-23T19:30:48.603Z,56.33
2018-11-23T19:33:16.831Z,86.60
2018-11-23T19:35:45.065Z,116.60
2018-11-23T19:38:13.281Z,89.53
2018-11-23T19:40:41.489Z,64.47
2018-11-23T19:43:09.706Z,53.87
2018-11-23T19:45:37.922Z,50.67
2018-11-23T19:48:06.406Z,50.37
2018-11-23T19:50:34.616Z,52.40
2018-11-23T19:53:02.812Z,50.97
2018-11-23T19:55:31.071Z,56.17
2018-11-23T19:57:59.286Z,47.00
2018-11-23T20:00:27.750Z,50.53
2018-11-23T20:02:55.977Z,50.73
2018-11-23T20:05:24.226Z,53.20
2018-11-23T20:07:53.818Z,50.67
2018-11-23T20:10:22.734Z,49.53
2018-11-23T20:12:52.279Z,51.73
2018-11-23T20:15:20.548Z,51.83
2018-11-23T20:17:48.836Z,49.67
2018-11-23T20:20:17.397Z,49.53
2018-11-23T20:22:46.404Z,55.60
2018-11-23T20:25:16.490Z,54.10
2018-11-23T20:27:45.518Z,46.77
2018-11-23T20:30:15.509Z,51.83
2018-11-23T20:32:43.814Z,47.17
2018-11-23T20:35:13.987Z,50.53
2018-11-23T20:37:42.199Z,50.87
2018-11-23T20:40:12.562Z,48.10
2018-11-23T20:42:40.823Z,53.97
2018-11-23T20:45:11.096Z,52.93
2018-11-23T20:47:39.382Z,49.13
2018-11-23T20:50:09.622Z,49.30
2018-11-23T20:52:37.863Z,52.97
2018-11-23T20:55:08.242Z,54.80
2018-11-23T20:57:36.448Z,60.00
2018-11-23T21:00:09.262Z,56.43
2018-11-23T21:02:37.526Z,54.70
2018-11-23T21:05:07.405Z,52.30
2018-11-23T21:07:35.917Z,54.97
2018-11-23T21:10:06.814Z,48.50
2018-11-23T21:12:35.040Z,53.03
2018-11-23T21:15:03.359Z,49.90
2018-11-23T21:17:31.618Z,50.93
2018-11-23T21:19:59.853Z,55.23
2018-11-23T21:22:28.147Z,48.70
2018-11-23T21:24:56.371Z,55.40
2018-11-23T21:27:24.587Z,48.13
2018-11-23T21:29:52.827Z,55.03
2018-11-23T21:32:21.062Z,52.93
2018-11-23T21:34:49.266Z,56.87
2018-11-23T21:37:17.515Z,51.10
2018-11-23T21:39:45.757Z,51.33
2018-11-23T21:42:13.958Z,49.43
2018-11-23T21:44:42.192Z,68.97
2018-11-23T21:47:10.413Z,64.37
2018-11-23T21:49:38.650Z,56.70
2018-11-23T21:52:06.930Z,59.47
2018-11-23T21:54:35.159Z,50.50
2018-11-23T21:57:03.475Z,54.97
2018-11-23T21:59:31.751Z,51.93
2018-11-23T22:02:00.385Z,54.30
2018-11-23T22:04:28.230Z,52.50
2018-11-23T22:06:56.506Z,49.80
2018-11-23T22:09:24.767Z,51.97
2018-11-23T22:11:53.088Z,56.83
2018-11-23T22:14:21.343Z,54.40
2018-11-23T22:16:49.614Z,49.33
2018-11-23T22:19:17.870Z,52.27
2018-11-23T22:21:46.105Z,55.57
2018-11-23T22:24:14.343Z,51.63
2018-11-23T22:26:42.677Z,49.57
2018-11-23T22:29:10.912Z,53.17
2018-11-23T22:31:39.154Z,52.23
2018-11-23T22:34:07.436Z,48.43
2018-11-23T22:36:35.684Z,52.73
2018-11-23T22:39:05.951Z,48.40
2018-11-23T22:41:34.224Z,48.40
2018-11-23T22:44:02.443Z,49.63
2018-11-23T22:46:30.672Z,50.43
2018-11-23T22:48:58.903Z,46.43
2018-11-23T22:51:27.122Z,47.80
2018-11-23T22:53:55.341Z,45.83
2018-11-23T22:56:23.570Z,49.57
2018-11-23T22:58:55.480Z,45.77
2018-11-23T23:01:20.016Z,49.53
2018-11-23T23:03:48.262Z,46.90
2018-11-23T23:06:16.476Z,48.83
2018-11-23T23:08:44.721Z,40.30
2018-11-23T23:11:12.950Z,46.90
2018-11-23T23:13:41.209Z,47.80
2018-11-23T23:16:09.437Z,49.63
2018-11-23T23:18:37.663Z,46.83
2018-11-23T23:21:05.894Z,53.47
2018-11-23T23:23:34.115Z,49.40
2018-11-23T23:26:02.343Z,51.33
2018-11-23T23:28:30.594Z,48.83
2018-11-23T23:30:58.832Z,48.70
2018-11-23T23:33:27.065Z,50.80
2018-11-23T23:35:55.269Z,51.97
2018-11-23T23:38:23.528Z,52.20
2018-11-23T23:40:52.027Z,50.93
2018-11-23T23:43:20.274Z,51.50
2018-11-23T23:45:48.601Z,48.63
2018-11-23T23:48:16.827Z,48.73
2018-11-23T23:50:45.040Z,49.73
2018-11-23T23:53:13.274Z,43.03
2018-11-23T23:55:41.576Z,51.00
2018-11-23T23:58:09.818Z,47.50
